sensor_id;sensor_type;location;lat;lon;timestamp;P1;durP1;ratioP1;P2;durP2;ratioP2
77117;SDS011;66072;50.238;19.228;2023-03-08T21:30:41;42.60;;;24.40;;
77117;SDS011;66072;50.238;19.228;2023-03-08T21:33:09;31.10;;;18.10;;
77117;SDS011;66072;50.238;19.228;2023-03-08T21:35:40;39.30;;;20.30;;
77117;SDS011;66072;50.238;19.228;2023-03-08T21:38:08;41.60;;;22.00;;
77117;SDS011;66072;50.238;19.228;2023-03-08T21:40:37;42.70;;;25.60;;
77117;SDS011;66072;50.238;19.228;2023-03-08T21:43:06;34.90;;;20.40;;
77117;SDS011;66072;50.238;19.228;2023-03-08T21:45:37;35.00;;;21.00;;
77117;SDS011;66072;50.238;19.228;2023-03-08T21:48:06;39.00;;;23.70;;
77117;SDS011;66072;50.238;19.228;2023-03-08T21:50:36;32.80;;;20.50;;
77117;SDS011;66072;50.238;19.228;2023-03-08T21:53:05;32.10;;;19.30;;
77117;SDS011;66072;50.238;19.228;2023-03-08T21:55:34;41.30;;;23.20;;
77117;SDS011;66072;50.238;19.228;2023-03-08T21:58:06;32.90;;;20.10;;
77117;SDS011;66072;50.238;19.228;2023-03-08T22:00:34;31.50;;;18.30;;
77117;SDS011;66072;50.238;19.228;2023-03-08T22:03:02;24.80;;;12.90;;
77117;SDS011;66072;50.238;19.228;2023-03-08T22:05:30;33.40;;;18.10;;
77117;SDS011;66072;50.238;19.228;2023-03-08T22:07:58;19.50;;;9.30;;
77117;SDS011;66072;50.238;19.228;2023-03-08T22:10:25;16.90;;;9.40;;
77117;SDS011;66072;50.238;19.228;2023-03-08T22:12:53;18.70;;;9.50;;
77117;SDS011;66072;50.238;19.228;2023-03-08T22:15:20;21.40;;;11.60;;
77117;SDS011;66072;50.238;19.228;2023-03-08T22:17:48;20.10;;;11.90;;
77117;SDS011;66072;50.238;19.228;2023-03-08T22:20:15;20.10;;;11.30;;
77117;SDS011;66072;50.238;19.228;2023-03-08T22:22:43;24.20;;;14.70;;
77117;SDS011;66072;50.238;19.228;2023-03-08T22:25:10;24.60;;;15.10;;
77117;SDS011;66072;50.238;19.228;2023-03-08T22:27:38;27.50;;;14.90;;
77117;SDS011;66072;50.238;19.228;2023-03-08T22:30:07;32.90;;;17.90;;
77117;SDS011;66072;50.238;19.228;2023-03-08T22:32:36;21.70;;;12.80;;
77117;SDS011;66072;50.238;19.228;2023-03-08T22:35:04;32.00;;;19.70;;
77117;SDS011;66072;50.238;19.228;2023-03-08T22:37:33;35.60;;;19.90;;
77117;SDS011;66072;50.238;19.228;2023-03-08T22:40:00;25.00;;;12.20;;
77117;SDS011;66072;50.238;19.228;2023-03-08T22:42:28;38.50;;;21.50;;
77117;SDS011;66072;50.238;19.228;2023-03-08T22:44:56;27.30;;;15.80;;
77117;SDS011;66072;50.238;19.228;2023-03-08T22:47:23;34.40;;;21.10;;
77117;SDS011;66072;50.238;19.228;2023-03-08T22:49:51;43.20;;;23.50;;
77117;SDS011;66072;50.238;19.228;2023-03-08T22:52:19;27.10;;;16.90;;
77117;SDS011;66072;50.238;19.228;2023-03-08T22:54:46;44.50;;;26.70;;
77117;SDS011;66072;50.238;19.228;2023-03-08T22:57:14;51.40;;;29.40;;
77117;SDS011;66072;50.238;19.228;2023-03-08T22:59:42;53.60;;;31.30;;
77117;SDS011;66072;50.238;19.228;2023-03-08T23:02:10;55.80;;;30.20;;
77117;SDS011;66072;50.238;19.228;2023-03-08T23:04:38;49.50;;;28.00;;
77117;SDS011;66072;50.238;19.228;2023-03-08T23:07:06;48.00;;;28.00;;
77117;SDS011;66072;50.238;19.228;2023-03-08T23:09:34;55.00;;;30.60;;
77117;SDS011;66072;50.238;19.228;2023-03-08T23:12:01;47.40;;;27.00;;
77117;SDS011;66072;50.238;19.228;2023-03-08T23:14:29;45.00;;;24.90;;
77117;SDS011;66072;50.238;19.228;2023-03-08T23:16:57;45.60;;;26.00;;
77117;SDS011;66072;50.238;19.228;2023-03-08T23:19:25;36.30;;;23.50;;
77117;SDS011;66072;50.238;19.228;2023-03-08T23:21:53;35.60;;;20.50;;
77117;SDS011;66072;50.238;19.228;2023-03-08T23:24:21;31.50;;;19.70;;
77117;SDS011;66072;50.238;19.228;2023-03-08T23:26:49;21.20;;;11.50;;
77117;SDS011;66072;50.238;19.228;2023-03-08T23:29:17;25.00;;;11.80;;
77117;SDS011;66072;50.238;19.228;2023-03-08T23:31:44;29.60;;;16.30;;
77117;SDS011;66072;50.238;19.228;2023-03-08T23:34:12;30.90;;;19.30;;
77117;SDS011;66072;50.238;19.228;2023-03-08T23:36:40;40.90;;;22.90;;
77117;SDS011;66072;50.238;19.228;2023-03-08T23:39:08;47.90;;;28.00;;
77117;SDS011;66072;50.238;19.228;2023-03-08T23:41:37;45.50;;;28.20;;
77117;SDS011;66072;50.238;19.228;2023-03-08T23:44:05;43.60;;;25.10;;
77117;SDS011;66072;50.238;19.228;2023-03-08T23:46:32;43.70;;;25.00;;
77117;SDS011;66072;50.238;19.228;2023-03-08T23:49:00;38.10;;;22.80;;
77117;SDS011;66072;50.238;19.228;2023-03-08T23:51:28;42.30;;;21.70;;
77117;SDS011;66072;50.238;19.228;2023-03-08T23:53:59;40.40;;;24.00;;
77117;SDS011;66072;50.238;19.228;2023-03-08T23:56:32;39.20;;;22.90;;
77117;SDS011;66072;50.238;19.228;2023-03-08T23:59:03;44.10;;;25.50;;
